DW4005 Mahon ES current weather conditions

sailwx.info

Wind from 107 at 1 knots gusting 8

Air temperature 28.9° C
Dewpoint 20.6° C

Last reported at 2017-Jun-25 13:01 UTC.
Time now 2017-Jun-25 14:05 UTC

Location: N 39°56' E 004°08'.
View on Google Maps.

See reports from other nearby stations

  
Tides and Currents Weather Stations Pressure Air Temp Water Temp Dewpoint Dewpoint Depression Visibility Wind Speed Wind Dir Waves Ship Positions
date/time (UTC)wind fromknots sea level pressurealtimeterstation pressurevisibilityair tempwater tempwave heightnotes
2017-Jun-25 13:01 107 1 gusting 8 28.9
2017-Jun-25 12:46 124 4 gusting 7 28.3
2017-Jun-25 12:31 098 3 gusting 7 28.3
2017-Jun-25 12:16 125 3 gusting 7 28.9
2017-Jun-25 12:01 119 3 gusting 6 28.3
2017-Jun-25 11:46 051 2 gusting 6 28.9
2017-Jun-25 11:31 040 2 gusting 6 28.9
2017-Jun-25 11:16 036 3 gusting 7 28.9
2017-Jun-25 11:01 036 2 gusting 6 29.4
2017-Jun-25 10:46 032 2 gusting 6 29.4
2017-Jun-25 10:31 038 2 gusting 7 28.9
2017-Jun-25 10:16 360 4 gusting 6 29.4
2017-Jun-25 10:01 017 3 gusting 6 29.4
2017-Jun-25 09:46 325 1 gusting 4 30.0
2017-Jun-25 09:31 322 2 gusting 5 28.9
2017-Jun-25 09:16 313 1 gusting 6 27.2
2017-Jun-25 09:01 049 3 gusting 6 26.7
2017-Jun-25 08:46 051 3 gusting 7 26.7
2017-Jun-25 08:31 072 2 gusting 6 26.7
2017-Jun-25 08:16 036 3 gusting 6 26.7
2017-Jun-25 08:01 030 3 gusting 8 26.7
2017-Jun-25 07:46 048 3 gusting 7 26.1
2017-Jun-25 07:31 052 4 gusting 7 26.1
2017-Jun-25 07:16 043 3 gusting 7 26.1
2017-Jun-25 07:01 048 3 gusting 7 26.1
2017-Jun-25 06:46 107 4 gusting 8 26.1
2017-Jun-25 06:31 350 1 gusting 4 26.7
2017-Jun-25 06:16 304 26.1
2017-Jun-25 06:01 304 25.0
2017-Jun-25 05:46 304 24.4
2017-Jun-25 05:31 304 23.3
2017-Jun-25 05:15 304 0 gusting 1 22.8
2017-Jun-25 05:01 304 22.2
2017-Jun-25 04:45 303 22.2
2017-Jun-25 04:30
2017-Jun-25 04:15
2017-Jun-25 04:00
2017-Jun-25 03:45
2017-Jun-25 03:30
2017-Jun-25 03:15
2017-Jun-25 03:00
2017-Jun-25 02:45
2017-Jun-25 02:30
2017-Jun-25 02:15
2017-Jun-25 02:00
2017-Jun-25 01:45
2017-Jun-25 01:29
2017-Jun-25 01:14
2017-Jun-25 00:59
2017-Jun-25 00:44
2017-Jun-25 00:29
2017-Jun-25 00:14
2017-Jun-24 23:59
2017-Jun-24 23:44
2017-Jun-24 23:30
2017-Jun-24 23:14
2017-Jun-24 22:59
2017-Jun-24 22:44
2017-Jun-24 22:29
2017-Jun-24 22:13
2017-Jun-24 21:58
2017-Jun-24 21:43
2017-Jun-24 21:28
2017-Jun-24 21:13
2017-Jun-24 20:58
2017-Jun-24 20:43
2017-Jun-24 20:28
2017-Jun-24 20:13
2017-Jun-24 19:58
2017-Jun-24 19:43
2017-Jun-24 19:28
2017-Jun-24 19:13
2017-Jun-24 18:58
2017-Jun-24 18:42 281 2 gusting 6 27.2
2017-Jun-24 18:27 101 3 gusting 7 27.8
2017-Jun-24 18:12 119 1 gusting 6 28.3
2017-Jun-24 17:57 142 1 gusting 7 28.3
2017-Jun-24 17:42 132 4 gusting 9 29.4
2017-Jun-24 17:27 152 2 gusting 8 29.4
2017-Jun-24 17:12 170 6 gusting 13 28.9
2017-Jun-24 16:57 121 4 gusting 15 29.4
2017-Jun-24 16:42 181 7 gusting 22 29.4
2017-Jun-24 16:28 156 6 gusting 10 30.6
2017-Jun-24 16:12 224 6 gusting 13 30.6
2017-Jun-24 15:57 159 5 gusting 15 30.6
2017-Jun-24 15:42 163 6 gusting 13 31.1
2017-Jun-24 15:27 194 6 gusting 13 31.1
2017-Jun-24 15:12 123 6 gusting 17 30.6
2017-Jun-24 14:57 157 6 gusting 16 31.1
2017-Jun-24 14:42 047 2 gusting 9 32.2
2017-Jun-24 14:27 168 2 gusting 9 32.2
2017-Jun-24 14:12 272 3 gusting 10 32.2
2017-Jun-24 13:57 271 3 gusting 7 33.3
2017-Jun-24 13:42 305 3 gusting 6 32.8
2017-Jun-24 13:27 311 2 gusting 6 33.3
2017-Jun-24 13:12 300 2 gusting 6 32.8
2017-Jun-24 12:57 334 0 gusting 5 32.2
2017-Jun-24 12:42 009 3 gusting 13 31.7
2017-Jun-24 12:27 125 4 gusting 8 32.8
2017-Jun-24 12:12 153 4 gusting 8 32.2
2017-Jun-24 11:57 046 3 gusting 7 31.7
2017-Jun-24 11:42 117 3 gusting 6 29.4
2017-Jun-24 11:27 118 4 gusting 8 28.9
2017-Jun-24 11:12 112 5 gusting 9 28.3
2017-Jun-24 10:57 134 5 gusting 8 28.9
2017-Jun-24 10:42 069 4 gusting 7 28.9
2017-Jun-24 10:27 092 4 gusting 9 28.3
2017-Jun-24 10:12 109 3 gusting 10 28.3
2017-Jun-24 09:57 119 6 gusting 9 27.8
2017-Jun-24 09:42 115 4 gusting 7 28.3
2017-Jun-24 09:27 059 3 gusting 6 28.3
2017-Jun-24 09:12 126 3 gusting 6 28.9
2017-Jun-24 08:57 071 2 gusting 6 28.9
2017-Jun-24 08:42 058 1 gusting 6 28.9
2017-Jun-24 08:27 026 1 gusting 6 30.6
2017-Jun-24 08:12 360 0 gusting 6 30.6
2017-Jun-24 07:57 323 0 gusting 6 30.6
2017-Jun-24 07:42 005 0 gusting 4 30.6
2017-Jun-24 07:27 360 0 gusting 3 29.4
2017-Jun-24 07:12 134 0 gusting 4 28.9
2017-Jun-24 06:57 136 0 gusting 1 28.3
2017-Jun-24 06:42 136 0 gusting 4 27.2
2017-Jun-24 06:27 136 27.2
2017-Jun-24 06:12 136 26.1
2017-Jun-24 05:56 136 0 gusting 1 25.0
2017-Jun-24 05:41 136 24.4
2017-Jun-24 05:26 136 23.3
2017-Jun-24 05:11 136 22.8
2017-Jun-24 04:56 136 0 gusting 1 22.2
2017-Jun-24 04:41
2017-Jun-24 04:26
2017-Jun-24 04:11
2017-Jun-24 03:56
2017-Jun-24 03:41
2017-Jun-24 03:26
2017-Jun-24 03:11
2017-Jun-24 02:56
2017-Jun-24 02:41
2017-Jun-24 02:26
2017-Jun-24 02:10
2017-Jun-24 01:55
2017-Jun-24 01:40
2017-Jun-24 01:25
2017-Jun-24 01:10
2017-Jun-24 00:55
2017-Jun-24 00:40
2017-Jun-24 00:25
2017-Jun-24 00:10
2017-Jun-23 23:55
2017-Jun-23 23:40
2017-Jun-23 23:25
2017-Jun-23 23:09
2017-Jun-23 22:55
2017-Jun-23 22:39
2017-Jun-23 22:24
2017-Jun-23 22:09
2017-Jun-23 21:54
2017-Jun-23 21:39
2017-Jun-23 21:24
2017-Jun-23 21:09
2017-Jun-23 20:54
2017-Jun-23 20:39
2017-Jun-23 20:24
2017-Jun-23 20:09
2017-Jun-23 19:54
2017-Jun-23 19:38
2017-Jun-23 19:23
2017-Jun-23 19:08
2017-Jun-23 18:53 147 3 gusting 7 27.2
2017-Jun-23 18:38 144 27.8
2017-Jun-23 18:23 139 3 gusting 12 27.8
2017-Jun-23 18:08 273 2 gusting 9 28.9
2017-Jun-23 17:53 087 0 gusting 6 28.9
2017-Jun-23 17:38 202 1 gusting 8 29.4
2017-Jun-23 17:23 275 0 gusting 7 30.0
2017-Jun-23 17:08 351 2 gusting 7 31.1
2017-Jun-23 16:53 240 3 gusting 6 31.1
2017-Jun-23 16:38 029 1 gusting 9 31.1
2017-Jun-23 16:23 078 1 gusting 6 30.0
2017-Jun-23 16:08 119 1 gusting 7 31.1
2017-Jun-23 15:53 066 1 gusting 6 30.6
2017-Jun-23 15:38 134 1 gusting 6 30.6
2017-Jun-23 15:23 065 1 gusting 6 30.6
2017-Jun-23 15:08 044 1 gusting 5 31.7
2017-Jun-23 14:53 058 2 gusting 6 31.7
2017-Jun-23 14:38 044 1 gusting 5 32.2
2017-Jun-23 14:23 044 3 gusting 6 33.3
2017-Jun-23 14:08 344 1 gusting 5 33.3